createdAt,value
2023-03-12T00:00:58.344Z,0.00
2023-03-12T00:01:58.323Z,0.00
2023-03-12T00:02:58.387Z,0.00
2023-03-12T00:03:58.350Z,0.00
2023-03-12T00:04:58.300Z,0.00
2023-03-12T00:06:02.010Z,0.00
2023-03-12T00:06:59.280Z,0.00
2023-03-12T00:07:58.259Z,0.00
2023-03-12T00:08:58.256Z,0.00
2023-03-12T00:09:58.237Z,0.00
2023-03-12T00:10:58.215Z,0.00
2023-03-12T00:11:58.220Z,0.00
2023-03-12T00:12:58.210Z,0.00
2023-03-12T00:13:58.218Z,0.00
2023-03-12T00:14:58.185Z,0.00
2023-03-12T00:15:58.201Z,0.00
2023-03-12T00:16:58.178Z,0.00
2023-03-12T00:17:58.163Z,0.00
2023-03-12T00:18:58.149Z,0.00
2023-03-12T00:19:58.123Z,0.00
2023-03-12T00:20:58.102Z,0.00
2023-03-12T00:21:58.109Z,0.00
2023-03-12T00:22:58.189Z,0.00
2023-03-12T00:23:58.136Z,0.00
2023-03-12T00:24:58.071Z,0.00
2023-03-12T00:25:58.052Z,0.00
2023-03-12T00:26:58.034Z,0.00
2023-03-12T00:27:58.029Z,0.00
2023-03-12T00:28:58.026Z,0.00
2023-03-12T00:29:58.028Z,0.00
2023-03-12T00:30:58.020Z,0.00
2023-03-12T00:31:57.998Z,0.00
2023-03-12T00:32:57.978Z,0.00
2023-03-12T00:33:57.975Z,0.00
2023-03-12T00:34:57.942Z,0.00
2023-03-12T00:35:58.000Z,0.00
2023-03-12T00:36:57.927Z,0.00
2023-03-12T00:37:57.910Z,0.00
2023-03-12T00:38:57.919Z,0.00
2023-03-12T00:39:57.900Z,0.00
2023-03-12T00:40:57.888Z,0.00
2023-03-12T00:41:57.879Z,0.00
2023-03-12T00:42:57.868Z,0.00
2023-03-12T00:43:57.863Z,0.00
2023-03-12T00:44:57.857Z,0.00
2023-03-12T00:45:57.847Z,0.00
2023-03-12T00:46:57.849Z,0.00
2023-03-12T00:47:57.811Z,0.00
2023-03-12T00:48:57.784Z,0.00
2023-03-12T00:49:57.786Z,0.00
2023-03-12T00:50:57.792Z,0.00
2023-03-12T00:51:57.763Z,0.00
2023-03-12T00:52:57.751Z,0.00
2023-03-12T00:53:57.739Z,0.00
2023-03-12T00:54:57.769Z,0.00
2023-03-12T00:55:57.720Z,0.00
2023-03-12T00:56:57.691Z,0.00
2023-03-12T00:57:57.697Z,0.00
2023-03-12T00:58:57.682Z,0.00
2023-03-12T00:59:57.663Z,0.00
2023-03-12T01:00:57.738Z,0.00
2023-03-12T01:01:57.649Z,0.00
2023-03-12T01:02:57.624Z,0.00
2023-03-12T01:03:57.651Z,0.00
2023-03-12T01:04:57.605Z,0.00
2023-03-12T01:05:57.626Z,0.00
2023-03-12T01:06:57.604Z,0.00
2023-03-12T01:07:57.580Z,0.00
2023-03-12T01:08:57.561Z,0.00
2023-03-12T01:09:57.578Z,0.00
2023-03-12T01:10:57.607Z,0.00
2023-03-12T01:11:57.530Z,0.00
2023-03-12T01:12:57.512Z,0.00
2023-03-12T01:13:57.513Z,0.00
2023-03-12T01:14:57.528Z,0.00
2023-03-12T01:15:57.586Z,0.00
2023-03-12T01:16:57.503Z,0.00
2023-03-12T01:17:57.475Z,0.00
2023-03-12T01:18:57.453Z,0.00
2023-03-12T01:19:57.444Z,0.00
2023-03-12T01:20:57.439Z,0.00
2023-03-12T01:21:57.431Z,0.00
2023-03-12T01:22:57.417Z,0.00
2023-03-12T01:23:57.426Z,0.00
2023-03-12T01:24:57.386Z,0.00
2023-03-12T01:25:57.372Z,0.00
2023-03-12T01:26:57.395Z,0.00
2023-03-12T01:27:57.385Z,0.00
2023-03-12T01:28:57.337Z,0.00
2023-03-12T01:29:57.346Z,0.00
2023-03-12T01:30:57.318Z,0.00
2023-03-12T01:31:57.303Z,0.00
2023-03-12T01:32:57.315Z,0.00
2023-03-12T01:33:57.297Z,0.00
2023-03-12T01:34:57.272Z,0.00
2023-03-12T01:35:57.370Z,0.00
2023-03-12T01:36:57.248Z,0.00
2023-03-12T01:37:57.264Z,0.00
2023-03-12T01:38:57.255Z,0.00
2023-03-12T01:39:57.209Z,0.00
2023-03-12T01:40:57.224Z,0.00
2023-03-12T01:41:57.200Z,0.00
2023-03-12T01:42:57.205Z,0.00
2023-03-12T01:43:57.198Z,0.00
2023-03-12T01:44:57.177Z,0.00
2023-03-12T01:45:57.269Z,0.00
2023-03-12T01:46:57.137Z,0.00
2023-03-12T01:47:57.132Z,0.00
2023-03-12T01:48:57.122Z,0.00
2023-03-12T01:49:57.115Z,0.00
2023-03-12T01:50:57.082Z,0.00
2023-03-12T01:51:57.066Z,0.00
2023-03-12T01:52:57.072Z,0.00
2023-03-12T01:53:57.075Z,0.00
2023-03-12T01:54:57.042Z,0.00
2023-03-12T01:55:57.028Z,0.00
2023-03-12T01:56:57.045Z,0.00
2023-03-12T01:57:57.003Z,0.00
2023-03-12T01:58:57.045Z,0.00
2023-03-12T01:59:56.999Z,0.00
2023-03-12T02:00:57.025Z,0.00
2023-03-12T02:01:56.972Z,0.00
2023-03-12T02:02:56.965Z,0.00
2023-03-12T02:03:57.099Z,0.00
2023-03-12T02:04:56.940Z,0.00
2023-03-12T02:05:56.911Z,0.00
2023-03-12T02:06:56.923Z,0.00
2023-03-12T02:07:56.900Z,0.00
2023-03-12T02:08:56.882Z,0.00
2023-03-12T02:09:56.896Z,0.00
2023-03-12T02:10:56.862Z,0.00
2023-03-12T02:11:56.845Z,0.00
2023-03-12T02:12:56.858Z,0.00
2023-03-12T02:13:56.819Z,0.00
2023-03-12T02:14:56.861Z,0.00
2023-03-12T02:15:56.802Z,0.00
2023-03-12T02:16:56.793Z,0.00
2023-03-12T02:17:56.787Z,0.00
2023-03-12T02:18:56.788Z,0.00
2023-03-12T02:19:56.777Z,0.00
2023-03-12T02:20:56.772Z,0.00
2023-03-12T02:21:56.733Z,0.00
2023-03-12T02:22:56.743Z,0.00
2023-03-12T02:23:56.710Z,0.00
2023-03-12T02:24:56.701Z,0.00
2023-03-12T02:25:56.716Z,0.00
2023-03-12T02:26:56.681Z,0.00
2023-03-12T02:27:56.667Z,0.00
2023-03-12T02:28:56.656Z,0.00
2023-03-12T02:29:56.642Z,0.00
2023-03-12T02:30:56.692Z,0.00
2023-03-12T02:31:56.730Z,0.00
2023-03-12T02:32:56.749Z,0.00
2023-03-12T02:33:56.610Z,0.00
2023-03-12T02:34:56.596Z,0.00
2023-03-12T02:35:56.687Z,0.00
2023-03-12T02:36:56.583Z,0.00
2023-03-12T02:37:56.570Z,0.00
2023-03-12T02:38:56.549Z,0.00
2023-03-12T02:39:56.530Z,0.00
2023-03-12T02:40:56.551Z,0.00
2023-03-12T02:41:56.518Z,0.00
2023-03-12T02:42:56.505Z,0.00
2023-03-12T02:43:56.485Z,0.00
2023-03-12T02:44:56.480Z,0.00
2023-03-12T02:45:56.587Z,0.00
2023-03-12T02:46:56.494Z,0.00
2023-03-12T02:47:56.451Z,0.00
2023-03-12T02:48:56.443Z,0.00
2023-03-12T02:49:56.432Z,0.00
2023-03-12T02:50:56.430Z,0.00
2023-03-12T02:51:56.416Z,0.00
2023-03-12T02:52:56.396Z,0.00
2023-03-12T02:53:56.375Z,0.00
2023-03-12T02:54:56.383Z,0.00
2023-03-12T02:55:56.362Z,0.00
2023-03-12T02:56:56.362Z,0.00
2023-03-12T02:57:56.329Z,0.00
2023-03-12T02:58:56.336Z,0.00
2023-03-12T02:59:56.305Z,0.00
2023-03-12T03:00:56.381Z,0.00
2023-03-12T03:01:56.316Z,0.00
2023-03-12T03:02:56.305Z,0.00
2023-03-12T03:03:56.302Z,0.00
2023-03-12T03:04:56.254Z,0.00
2023-03-12T03:05:56.254Z,0.00
2023-03-12T03:06:56.268Z,0.00
2023-03-12T03:07:56.234Z,0.00
2023-03-12T03:08:56.223Z,0.00
2023-03-12T03:09:56.196Z,0.00
2023-03-12T03:10:56.219Z,0.00
2023-03-12T03:11:56.221Z,0.00
2023-03-12T03:12:56.164Z,0.00
2023-03-12T03:13:56.163Z,0.00
2023-03-12T03:14:56.153Z,0.00
2023-03-12T03:15:56.190Z,0.00
2023-03-12T03:16:56.132Z,0.00
2023-03-12T03:17:56.121Z,0.00
2023-03-12T03:18:56.134Z,0.00
2023-03-12T03:19:56.102Z,0.00
2023-03-12T03:20:56.091Z,0.00
2023-03-12T03:21:56.058Z,0.00
2023-03-12T03:22:56.081Z,0.00
2023-03-12T03:23:56.049Z,0.00
2023-03-12T03:24:56.049Z,0.00
2023-03-12T03:25:56.036Z,0.00
2023-03-12T03:26:56.027Z,0.00
2023-03-12T03:27:56.047Z,0.00
2023-03-12T03:28:55.985Z,0.00
2023-03-12T03:29:55.967Z,0.00
2023-03-12T03:30:56.002Z,0.00
2023-03-12T03:31:55.943Z,0.00
2023-03-12T03:32:55.952Z,0.00
2023-03-12T03:33:55.936Z,0.00
2023-03-12T03:34:55.941Z,0.00
2023-03-12T03:35:55.930Z,0.00
2023-03-12T03:36:55.896Z,0.00
2023-03-12T03:37:55.876Z,0.00
2023-03-12T03:38:55.904Z,0.00
2023-03-12T03:39:55.857Z,0.00
2023-03-12T03:40:55.866Z,0.00
2023-03-12T03:41:55.835Z,0.00
2023-03-12T03:42:55.828Z,0.00
2023-03-12T03:43:55.822Z,0.00
2023-03-12T03:44:55.815Z,0.00
2023-03-12T03:45:55.822Z,0.00
2023-03-12T03:46:55.827Z,0.00
2023-03-12T03:47:55.776Z,0.00
2023-03-12T03:48:55.800Z,0.00
2023-03-12T03:49:55.753Z,0.00
2023-03-12T03:50:55.770Z,0.00
2023-03-12T03:51:55.733Z,0.00
2023-03-12T03:52:55.708Z,0.00
2023-03-12T03:53:55.721Z,0.00
2023-03-12T03:54:55.719Z,0.00
2023-03-12T03:55:55.677Z,0.00
2023-03-12T03:56:55.719Z,0.00
2023-03-12T03:57:55.666Z,0.00
2023-03-12T03:58:55.656Z,0.00
2023-03-12T03:59:55.654Z,0.00
2023-03-12T04:00:55.635Z,0.00
2023-03-12T04:01:55.609Z,0.00
2023-03-12T04:02:55.698Z,0.00
2023-03-12T04:03:55.582Z,0.00
2023-03-12T04:04:55.607Z,0.00
2023-03-12T04:05:55.783Z,0.00
2023-03-12T04:06:55.587Z,0.00
2023-03-12T04:07:55.539Z,0.00
2023-03-12T04:08:55.527Z,0.00
2023-03-12T04:09:55.516Z,0.00
2023-03-12T04:10:55.521Z,0.00
2023-03-12T04:11:55.512Z,0.00
2023-03-12T04:12:55.492Z,0.00
2023-03-12T04:13:55.480Z,0.00
2023-03-12T04:14:55.459Z,0.00
2023-03-12T04:15:55.522Z,0.00
2023-03-12T04:16:55.454Z,0.00
2023-03-12T04:17:55.513Z,0.00
2023-03-12T04:18:55.440Z,0.00
2023-03-12T04:19:55.404Z,0.00
2023-03-12T04:20:55.429Z,0.00
2023-03-12T04:21:55.394Z,0.00
2023-03-12T04:22:55.432Z,0.00
2023-03-12T04:23:55.366Z,0.00
2023-03-12T04:24:55.346Z,0.00
2023-03-12T04:25:55.368Z,0.00
2023-03-12T04:26:55.337Z,0.00
2023-03-12T04:27:55.323Z,0.00
2023-03-12T04:28:55.300Z,0.00
2023-03-12T04:29:55.304Z,0.00
2023-03-12T04:30:55.378Z,0.00
2023-03-12T04:31:55.280Z,0.00
2023-03-12T04:32:55.365Z,0.00
2023-03-12T04:33:55.254Z,0.00
2023-03-12T04:34:55.245Z,0.00
2023-03-12T04:35:55.302Z,0.00
2023-03-12T04:36:55.229Z,0.00
2023-03-12T04:37:55.208Z,0.00
2023-03-12T04:38:55.216Z,0.00
2023-03-12T04:39:55.187Z,0.00
2023-03-12T04:40:55.170Z,0.00
2023-03-12T04:41:55.166Z,0.00
2023-03-12T04:42:55.161Z,0.00
2023-03-12T04:43:55.129Z,0.00
2023-03-12T04:44:55.135Z,0.00
2023-03-12T04:45:55.120Z,0.00
2023-03-12T04:46:55.209Z,0.00
2023-03-12T04:47:55.112Z,0.00
2023-03-12T04:48:55.089Z,0.00
2023-03-12T04:49:55.065Z,0.00
2023-03-12T04:50:55.073Z,0.00
2023-03-12T04:51:55.069Z,0.00
2023-03-12T04:52:55.048Z,0.00
2023-03-12T04:53:55.046Z,0.00
2023-03-12T04:54:55.044Z,0.00
2023-03-12T04:55:55.013Z,0.00
2023-03-12T04:56:55.023Z,0.00
2023-03-12T04:57:54.988Z,0.00
2023-03-12T04:58:54.967Z,0.00
2023-03-12T04:59:54.969Z,0.00
2023-03-12T05:00:54.958Z,0.00
2023-03-12T05:01:54.930Z,0.00
2023-03-12T05:02:55.039Z,0.00
2023-03-12T05:03:54.983Z,0.00
2023-03-12T05:04:54.912Z,0.00
2023-03-12T05:05:54.901Z,0.00
2023-03-12T05:06:54.892Z,0.00
2023-03-12T05:07:54.897Z,0.00
2023-03-12T05:08:54.880Z,0.00
2023-03-12T05:09:54.848Z,0.00
2023-03-12T05:10:54.858Z,0.00
2023-03-12T05:11:54.837Z,0.00
2023-03-12T05:12:54.839Z,0.00
2023-03-12T05:13:54.841Z,0.00
2023-03-12T05:14:54.801Z,0.00
2023-03-12T05:15:54.866Z,0.00
2023-03-12T05:16:54.778Z,0.00
2023-03-12T05:17:55.032Z,0.00
2023-03-12T05:18:54.757Z,0.00
2023-03-12T05:19:54.746Z,0.00
2023-03-12T05:20:54.723Z,0.00
2023-03-12T05:21:54.702Z,0.00
2023-03-12T05:22:54.718Z,0.00
2023-03-12T05:23:54.704Z,0.00
2023-03-12T05:24:54.686Z,0.00
2023-03-12T05:25:54.657Z,0.00
2023-03-12T05:26:54.675Z,0.00
2023-03-12T05:27:54.633Z,0.00
2023-03-12T05:28:54.656Z,0.00
2023-03-12T05:29:54.615Z,0.00
2023-03-12T05:30:54.611Z,0.00
2023-03-12T05:31:54.728Z,0.00
2023-03-12T05:32:54.648Z,0.00
2023-03-12T05:33:54.583Z,4.00
2023-03-12T05:34:54.576Z,4.00
2023-03-12T05:35:54.563Z,0.00
2023-03-12T05:36:54.553Z,0.00
2023-03-12T05:37:54.530Z,4.00
2023-03-12T05:38:54.541Z,4.00
2023-03-12T05:39:54.531Z,4.00
2023-03-12T05:40:54.507Z,4.00
2023-03-12T05:41:54.499Z,4.00
2023-03-12T05:42:54.502Z,8.00
2023-03-12T05:43:54.473Z,8.00
2023-03-12T05:44:54.499Z,8.00
2023-03-12T05:45:54.494Z,12.00
2023-03-12T05:46:54.444Z,12.00
2023-03-12T05:47:54.418Z,16.00
2023-03-12T05:48:54.409Z,16.00
2023-03-12T05:49:54.423Z,16.00
2023-03-12T05:50:54.377Z,20.00
2023-03-12T05:51:54.372Z,24.00
2023-03-12T05:52:54.380Z,24.00
2023-03-12T05:53:54.383Z,24.00
2023-03-12T05:54:54.359Z,24.00
2023-03-12T05:55:54.348Z,24.00
2023-03-12T05:56:54.309Z,28.00
2023-03-12T05:57:54.316Z,28.00
2023-03-12T05:58:54.312Z,28.00
2023-03-12T05:59:54.319Z,32.00
2023-03-12T06:00:54.280Z,32.00
2023-03-12T06:01:54.268Z,36.00
2023-03-12T06:02:54.239Z,44.00
2023-03-12T06:03:54.231Z,44.00
2023-03-12T06:04:54.252Z,52.00
2023-03-12T06:05:54.221Z,60.00
2023-03-12T06:06:54.210Z,64.00
2023-03-12T06:07:54.212Z,72.00
2023-03-12T06:08:54.187Z,80.00
2023-03-12T06:09:54.172Z,88.00
2023-03-12T06:10:54.182Z,92.00
2023-03-12T06:11:54.138Z,100.00
2023-03-12T06:12:54.137Z,96.00
2023-03-12T06:13:54.116Z,96.00
2023-03-12T06:14:54.119Z,96.00
2023-03-12T06:15:54.112Z,100.00
2023-03-12T06:16:54.135Z,108.00
2023-03-12T06:17:54.084Z,120.00
2023-03-12T06:18:54.060Z,132.00
2023-03-12T06:19:54.048Z,152.00
2023-03-12T06:20:54.049Z,164.00
2023-03-12T06:21:54.066Z,180.00
2023-03-12T06:22:54.027Z,192.00
2023-03-12T06:23:54.012Z,188.00
2023-03-12T06:24:53.987Z,192.00
2023-03-12T06:25:53.995Z,200.00
2023-03-12T06:26:53.992Z,216.00
2023-03-12T06:27:53.971Z,228.00
2023-03-12T06:28:53.957Z,224.00
2023-03-12T06:29:53.934Z,224.00
2023-03-12T06:30:53.957Z,244.00
2023-03-12T06:31:54.032Z,260.00
2023-03-12T06:32:53.982Z,292.00
2023-03-12T06:33:53.894Z,344.00
2023-03-12T06:34:53.874Z,340.00
2023-03-12T06:35:54.000Z,340.00
2023-03-12T06:36:53.883Z,384.00
2023-03-12T06:37:53.847Z,428.00
2023-03-12T06:38:56.932Z,464.00
2023-03-12T06:39:53.863Z,496.00
2023-03-12T06:40:53.810Z,624.00
2023-03-12T06:41:53.850Z,760.00
2023-03-12T06:42:53.786Z,620.00
2023-03-12T06:43:53.783Z,576.00
2023-03-12T06:44:53.798Z,552.00
2023-03-12T06:45:53.780Z,596.00
2023-03-12T06:46:53.796Z,592.00
2023-03-12T06:47:53.777Z,480.00
2023-03-12T06:48:53.718Z,448.00
2023-03-12T06:49:53.724Z,408.00
2023-03-12T06:50:53.722Z,412.00
2023-03-12T06:51:53.689Z,412.00
2023-03-12T06:52:53.684Z,420.00
2023-03-12T06:53:53.665Z,456.00
2023-03-12T06:54:53.647Z,504.00
2023-03-12T06:55:53.642Z,528.00
2023-03-12T06:56:53.643Z,516.00
2023-03-12T06:57:53.659Z,532.00
2023-03-12T06:58:53.618Z,548.00
2023-03-12T06:59:53.596Z,588.00
2023-03-12T07:00:53.583Z,620.00
2023-03-12T07:01:53.616Z,620.00
2023-03-12T07:02:53.607Z,640.00
2023-03-12T07:03:53.569Z,660.00
2023-03-12T07:04:53.576Z,684.00
2023-03-12T07:05:53.543Z,692.00
2023-03-12T07:06:53.517Z,724.00
2023-03-12T07:07:53.548Z,752.00
2023-03-12T07:08:53.527Z,776.00
2023-03-12T07:09:53.489Z,792.00
2023-03-12T07:10:53.474Z,876.00
2023-03-12T07:11:53.482Z,884.00
2023-03-12T07:12:53.480Z,792.00
2023-03-12T07:13:53.458Z,684.00
2023-03-12T07:14:53.447Z,640.00
2023-03-12T07:15:53.437Z,592.00
2023-03-12T07:16:53.415Z,548.00
2023-03-12T07:17:53.430Z,516.00
2023-03-12T07:18:53.421Z,540.00
2023-03-12T07:19:53.396Z,512.00
2023-03-12T07:20:53.381Z,424.00
2023-03-12T07:21:53.357Z,432.00
2023-03-12T07:22:53.357Z,460.00
2023-03-12T07:23:53.353Z,480.00
2023-03-12T07:24:53.338Z,552.00
2023-03-12T07:25:53.313Z,660.00
2023-03-12T07:26:53.311Z,736.00
2023-03-12T07:27:53.334Z,668.00
2023-03-12T07:28:53.289Z,620.00
2023-03-12T07:29:53.268Z,568.00
2023-03-12T07:30:53.274Z,536.00
2023-03-12T07:31:53.248Z,488.00
2023-03-12T07:32:53.326Z,428.00
2023-03-12T07:33:53.515Z,384.00
2023-03-12T07:34:53.242Z,352.00
2023-03-12T07:35:53.290Z,368.00
2023-03-12T07:36:53.389Z,424.00
2023-03-12T07:37:53.212Z,516.00
2023-03-12T07:38:53.159Z,640.00
2023-03-12T07:39:53.243Z,724.00
2023-03-12T07:40:53.214Z,760.00
2023-03-12T07:41:53.198Z,812.00
2023-03-12T07:42:53.134Z,796.00
2023-03-12T07:43:53.165Z,740.00
2023-03-12T07:44:53.091Z,748.00
2023-03-12T07:45:53.133Z,820.00
2023-03-12T07:46:53.331Z,876.00
2023-03-12T07:47:53.103Z,852.00
2023-03-12T07:48:53.253Z,868.00
2023-03-12T07:49:53.121Z,916.00
2023-03-12T07:50:53.056Z,980.00
2023-03-12T07:51:53.053Z,948.00
2023-03-12T07:52:53.012Z,912.00
2023-03-12T07:53:52.995Z,872.00
2023-03-12T07:54:53.129Z,904.00
2023-03-12T07:55:53.242Z,1000.00
2023-03-12T07:56:53.070Z,1052.00
2023-03-12T07:57:52.960Z,1036.00
2023-03-12T07:58:53.157Z,1112.00
2023-03-12T07:59:53.056Z,1020.00
2023-03-12T08:00:52.987Z,1056.00
2023-03-12T08:01:53.041Z,1048.00
2023-03-12T08:02:53.231Z,1052.00
2023-03-12T08:03:52.925Z,1136.00
2023-03-12T08:04:52.947Z,1232.00
2023-03-12T08:05:52.939Z,1308.00
2023-03-12T08:06:52.942Z,1348.00
2023-03-12T08:07:52.865Z,1280.00
2023-03-12T08:08:52.875Z,1272.00
2023-03-12T08:09:52.843Z,1252.00
2023-03-12T08:10:52.810Z,1212.00
2023-03-12T08:11:52.854Z,1156.00
2023-03-12T08:12:52.824Z,1136.00
2023-03-12T08:13:52.777Z,1156.00
2023-03-12T08:14:52.853Z,1168.00
2023-03-12T08:15:53.009Z,1188.00
2023-03-12T08:16:52.739Z,1176.00
2023-03-12T08:17:52.734Z,1156.00
2023-03-12T08:18:52.704Z,1076.00
2023-03-12T08:19:52.713Z,976.00
2023-03-12T08:20:52.698Z,960.00
2023-03-12T08:21:52.674Z,1028.00
2023-03-12T08:22:52.688Z,1124.00
2023-03-12T08:23:52.665Z,1244.00
2023-03-12T08:24:52.639Z,1304.00
2023-03-12T08:25:52.666Z,1284.00
2023-03-12T08:26:52.611Z,1276.00
2023-03-12T08:27:52.622Z,1324.00
2023-03-12T08:28:52.608Z,1392.00
2023-03-12T08:29:52.596Z,1380.00
2023-03-12T08:30:52.592Z,1480.00
2023-03-12T08:32:04.018Z,1596.00
2023-03-12T08:32:53.672Z,1684.00
2023-03-12T08:33:52.546Z,1788.00
2023-03-12T08:34:52.534Z,1928.00
2023-03-12T08:35:52.562Z,2048.00
2023-03-12T08:36:52.498Z,2092.00
2023-03-12T08:37:52.492Z,2044.00
2023-03-12T08:38:52.515Z,1832.00
2023-03-12T08:39:52.469Z,1844.00
2023-03-12T08:40:52.477Z,1928.00
2023-03-12T08:41:52.447Z,1896.00
2023-03-12T08:42:52.444Z,1892.00
2023-03-12T08:43:52.424Z,1896.00
2023-03-12T08:44:52.422Z,1936.00
2023-03-12T08:45:52.440Z,2060.00
2023-03-12T08:46:52.403Z,2240.00
2023-03-12T08:47:52.393Z,1992.00
2023-03-12T08:48:52.380Z,1840.00
2023-03-12T08:49:52.372Z,1900.00
2023-03-12T08:50:52.364Z,1984.00
2023-03-12T08:51:52.365Z,2080.00
2023-03-12T08:52:52.346Z,2292.00
2023-03-12T08:53:52.332Z,2592.00
2023-03-12T08:54:52.345Z,2544.00
2023-03-12T08:55:52.310Z,2312.00
2023-03-12T08:56:52.445Z,2324.00
2023-03-12T08:57:52.287Z,2628.00
2023-03-12T08:58:52.270Z,2860.00
2023-03-12T08:59:52.267Z,2776.00
2023-03-12T09:00:52.263Z,2780.00
2023-03-12T09:01:52.242Z,2764.00
2023-03-12T09:02:52.360Z,2824.00
2023-03-12T09:03:52.210Z,3044.00
2023-03-12T09:04:52.193Z,2832.00
2023-03-12T09:05:52.205Z,3208.00
2023-03-12T09:06:52.189Z,3648.00
2023-03-12T09:07:52.174Z,3432.00
2023-03-12T09:08:52.156Z,3140.00
2023-03-12T09:09:52.156Z,3224.00
2023-03-12T09:10:52.177Z,3180.00
2023-03-12T09:11:52.158Z,3300.00
2023-03-12T09:12:52.115Z,3204.00
2023-03-12T09:14:24.613Z,2896.00
2023-03-12T09:15:08.520Z,2400.00
2023-03-12T09:15:53.105Z,2124.00
2023-03-12T09:16:52.161Z,1884.00
2023-03-12T09:17:52.066Z,1972.00
2023-03-12T09:18:52.045Z,1988.00
2023-03-12T09:19:52.026Z,2012.00
2023-03-12T09:20:52.036Z,2240.00
2023-03-12T09:21:52.022Z,2248.00
2023-03-12T09:22:52.003Z,2092.00
2023-03-12T09:23:51.979Z,1872.00
2023-03-12T09:24:51.960Z,2048.00
2023-03-12T09:25:51.974Z,2116.00
2023-03-12T09:26:51.978Z,2172.00
2023-03-12T09:27:51.946Z,2240.00
2023-03-12T09:28:51.916Z,2212.00
2023-03-12T09:30:00.912Z,2104.00
2023-03-12T09:30:52.941Z,2228.00
2023-03-12T09:31:51.882Z,2032.00
2023-03-12T09:32:51.963Z,1888.00
2023-03-12T09:33:51.884Z,1896.00
2023-03-12T09:34:51.845Z,2064.00
2023-03-12T09:35:51.905Z,2388.00
2023-03-12T09:36:51.836Z,2664.00
2023-03-12T09:37:51.835Z,2656.00
2023-03-12T09:38:51.832Z,2672.00
2023-03-12T09:39:51.815Z,2592.00
2023-03-12T09:40:51.777Z,2488.00
2023-03-12T09:41:51.795Z,2256.00
2023-03-12T09:42:51.774Z,2156.00
2023-03-12T09:43:51.760Z,1876.00
2023-03-12T09:44:51.736Z,1752.00
2023-03-12T09:45:51.856Z,1800.00
2023-03-12T09:46:51.726Z,1788.00
2023-03-12T09:47:51.724Z,1764.00
2023-03-12T09:48:51.702Z,1652.00
2023-03-12T09:49:51.679Z,1736.00
2023-03-12T09:50:51.674Z,1812.00
2023-03-12T09:51:51.666Z,1640.00
2023-03-12T09:52:51.656Z,1800.00
2023-03-12T09:53:51.633Z,1740.00
2023-03-12T09:54:51.616Z,1812.00
2023-03-12T09:55:51.609Z,1976.00
2023-03-12T09:56:51.622Z,2056.00
2023-03-12T09:57:51.602Z,2308.00
2023-03-12T09:58:51.600Z,2136.00
2023-03-12T09:59:51.580Z,1744.00
2023-03-12T10:00:51.568Z,1648.00
2023-03-12T10:01:51.567Z,1528.00
2023-03-12T10:02:51.551Z,1772.00
2023-03-12T10:03:51.531Z,1796.00
2023-03-12T10:04:59.442Z,1816.00
2023-03-12T10:05:52.499Z,1776.00
2023-03-12T10:06:51.517Z,2192.00
2023-03-12T10:07:51.473Z,2228.00
2023-03-12T10:08:51.466Z,2552.00
2023-03-12T10:09:51.451Z,2712.00
2023-03-12T10:10:51.448Z,2428.00
2023-03-12T10:11:51.432Z,2160.00
2023-03-12T10:12:51.455Z,2072.00
2023-03-12T10:13:51.428Z,2300.00
2023-03-12T10:14:51.421Z,2432.00
2023-03-12T10:15:51.476Z,2604.00
2023-03-12T10:16:51.389Z,2936.00
2023-03-12T10:17:51.512Z,2864.00
2023-03-12T10:18:51.481Z,2956.00
2023-03-12T10:19:51.341Z,2440.00
2023-03-12T10:20:51.343Z,2032.00
2023-03-12T10:21:51.324Z,1884.00
2023-03-12T10:22:51.350Z,2100.00
2023-03-12T10:23:51.302Z,2016.00
2023-03-12T10:24:51.286Z,1960.00
2023-03-12T10:25:51.283Z,2068.00
2023-03-12T10:26:51.262Z,1884.00
2023-03-12T10:27:51.270Z,1920.00
2023-03-12T10:28:51.242Z,1680.00
2023-03-12T10:29:51.301Z,1412.00
2023-03-12T10:30:51.282Z,1268.00
2023-03-12T10:31:51.204Z,1372.00
2023-03-12T10:32:51.232Z,1544.00
2023-03-12T10:33:51.208Z,1700.00
2023-03-12T10:34:51.171Z,1916.00
2023-03-12T10:35:51.241Z,1928.00
2023-03-12T10:36:51.163Z,1840.00
2023-03-12T10:37:51.156Z,1644.00
2023-03-12T10:38:51.138Z,1356.00
2023-03-12T10:39:51.137Z,1244.00
2023-03-12T10:40:51.101Z,1176.00
2023-03-12T10:41:51.104Z,1332.00
2023-03-12T10:42:51.113Z,1664.00
2023-03-12T10:43:51.102Z,2032.00
2023-03-12T10:44:51.070Z,2156.00
2023-03-12T10:45:51.054Z,2100.00
2023-03-12T10:46:51.138Z,2144.00
2023-03-12T10:47:51.032Z,1884.00
2023-03-12T10:48:51.024Z,1704.00
2023-03-12T10:49:51.002Z,2192.00
2023-03-12T10:50:51.000Z,2216.00
2023-03-12T10:51:50.974Z,2384.00
2023-03-12T10:52:50.972Z,2564.00
2023-03-12T10:53:50.979Z,2244.00
2023-03-12T10:54:50.944Z,2340.00
2023-03-12T10:55:50.927Z,2600.00
2023-03-12T10:56:50.939Z,2676.00
2023-03-12T10:57:50.915Z,2304.00
2023-03-12T10:58:50.929Z,2220.00
2023-03-12T10:59:50.895Z,2500.00
2023-03-12T11:00:50.878Z,2544.00
2023-03-12T11:01:50.961Z,2064.00
2023-03-12T11:02:50.877Z,1740.00
2023-03-12T11:03:50.852Z,1516.00
2023-03-12T11:04:50.859Z,1516.00
2023-03-12T11:05:50.857Z,1692.00
2023-03-12T11:06:50.821Z,1676.00
2023-03-12T11:07:50.812Z,1560.00
2023-03-12T11:08:50.797Z,1580.00
2023-03-12T11:09:50.782Z,1612.00
2023-03-12T11:10:50.774Z,1828.00
2023-03-12T11:11:50.773Z,1896.00
2023-03-12T11:12:50.746Z,2184.00
2023-03-12T11:13:50.740Z,1684.00
2023-03-12T11:14:50.717Z,1972.00
2023-03-12T11:15:50.737Z,1992.00
2023-03-12T11:16:50.699Z,2744.00
2023-03-12T11:17:50.691Z,2900.00
2023-03-12T11:18:50.726Z,2760.00
2023-03-12T11:19:50.655Z,2400.00
2023-03-12T11:20:50.647Z,2224.00
2023-03-12T11:21:50.636Z,2064.00
2023-03-12T11:22:51.634Z,2208.00
2023-03-12T11:23:50.625Z,2220.00
2023-03-12T11:24:50.602Z,2184.00
2023-03-12T11:25:50.600Z,2132.00
2023-03-12T11:26:50.594Z,2596.00
2023-03-12T11:27:50.576Z,2372.00
2023-03-12T11:28:50.567Z,2040.00
2023-03-12T11:29:50.682Z,2072.00
2023-03-12T11:30:50.599Z,1888.00
2023-03-12T11:31:50.578Z,2016.00
2023-03-12T11:32:50.587Z,1504.00
2023-03-12T11:33:50.527Z,2244.00
2023-03-12T11:34:50.524Z,1744.00
2023-03-12T11:35:50.556Z,1460.00
2023-03-12T11:36:50.465Z,2068.00
2023-03-12T11:37:50.449Z,1880.00
2023-03-12T11:38:50.466Z,2308.00
2023-03-12T11:39:50.441Z,2184.00
2023-03-12T11:40:50.436Z,2564.00
2023-03-12T11:41:50.418Z,1908.00
2023-03-12T11:42:52.010Z,2716.00
2023-03-12T11:43:50.400Z,3120.00
2023-03-12T11:44:50.375Z,2324.00
2023-03-12T11:45:50.359Z,1652.00
2023-03-12T11:46:50.371Z,2388.00
2023-03-12T11:47:50.440Z,1868.00
2023-03-12T11:48:50.520Z,1736.00
2023-03-12T11:49:50.315Z,2064.00
2023-03-12T11:50:50.331Z,2016.00
2023-03-12T11:51:50.290Z,2392.00
2023-03-12T11:52:50.297Z,2396.00
2023-03-12T11:53:50.284Z,2572.00
2023-03-12T11:54:50.298Z,2540.00
2023-03-12T11:55:50.261Z,1844.00
2023-03-12T11:56:50.237Z,1880.00
2023-03-12T11:57:50.222Z,1680.00
2023-03-12T11:58:50.215Z,1584.00
2023-03-12T11:59:50.201Z,2124.00
2023-03-12T12:00:50.223Z,1596.00
2023-03-12T12:01:50.232Z,2568.00
2023-03-12T12:02:50.247Z,1712.00
2023-03-12T12:03:50.156Z,2348.00
2023-03-12T12:04:50.147Z,1956.00
2023-03-12T12:05:50.162Z,1620.00
2023-03-12T12:06:50.150Z,1648.00
2023-03-12T12:07:50.113Z,1672.00
2023-03-12T12:08:50.106Z,1544.00
2023-03-12T12:09:50.105Z,1676.00
2023-03-12T12:10:50.089Z,1676.00
2023-03-12T12:11:50.085Z,1840.00
2023-03-12T12:12:50.059Z,2360.00
2023-03-12T12:13:50.041Z,3236.00
2023-03-12T12:14:50.035Z,3404.00
2023-03-12T12:15:50.020Z,3712.00
2023-03-12T12:16:50.126Z,3044.00
2023-03-12T12:17:50.007Z,2832.00
2023-03-12T12:18:49.992Z,5720.00
2023-03-12T12:19:49.979Z,5840.00
2023-03-12T12:20:49.981Z,5436.00
2023-03-12T12:21:49.948Z,9684.00
2023-03-12T12:22:50.000Z,8856.00
2023-03-12T12:23:49.962Z,7860.00
2023-03-12T12:24:49.921Z,8856.00
2023-03-12T12:25:49.906Z,9728.00
2023-03-12T12:26:49.896Z,11468.00
2023-03-12T12:27:49.893Z,7732.00
2023-03-12T12:28:49.912Z,7396.00
2023-03-12T12:29:49.864Z,7212.00
2023-03-12T12:30:49.864Z,6760.00
2023-03-12T12:31:49.854Z,6384.00
2023-03-12T12:32:49.876Z,5200.00
2023-03-12T12:33:49.822Z,4584.00
2023-03-12T12:34:49.835Z,5824.00
2023-03-12T12:35:49.851Z,5760.00
2023-03-12T12:36:49.798Z,5528.00
2023-03-12T12:37:49.784Z,5672.00
2023-03-12T12:38:49.785Z,5564.00
2023-03-12T12:39:49.759Z,5140.00
2023-03-12T12:40:49.770Z,4760.00
2023-03-12T12:41:49.738Z,5188.00
2023-03-12T12:42:49.764Z,4436.00